Flight Track Log - Related Links

Times and Time Zones

All times are in EDT time to prevent confusion due to time zone crossing. See the UCA3597 flight status page for this flight to view local times or setup timezone preferences in your user account.

Time Position Orientation Groundspeed Altitude Reporting Facility
EDT Latitude Longitude Course Direction KTS MPH feet Rate Location/Type
Thu 05:56:00 PM 39.5538 -77.1960 19° North  Level Estimated
Thu 05:57:00 PM 39.6144 -77.1693 19° North  Level Estimated
Thu 05:58:00 PM 39.6750 -77.1426 19° North  Level Estimated
Thu 05:59:00 PM 39.7367 -77.1154 19° North  Level Estimated
Thu 06:00:00 PM 39.7985 -77.0881 19° North  Level Estimated
Thu 06:01:00 PM 39.8602 -77.0608 19° North  Level Estimated
Thu 06:02:00 PM 39.9219 -77.0334 19° North  Level Estimated
Thu 06:03:00 PM 39.9836 -77.0059 19° North  Level Estimated
Thu 06:04:00 PM 40.0453 -76.9784 19° North  Level Estimated
Thu 06:05:00 PM 40.1070 -76.9509 19° North  Level Estimated
Thu 06:06:00 PM 40.1687 -76.9233 19° North  Level Estimated
Thu 06:07:00 PM 40.2304 -76.8957 19° North  Level Estimated
Thu 06:08:00 PM 40.2921 -76.8680 19° North  Level Estimated
Thu 06:09:00 PM 40.3537 -76.8402 19° North  Level Estimated
Thu 06:10:00 PM 40.4154 -76.8124 19° North  Level Estimated
Thu 06:11:00 PM 40.4771 -76.7846 19° North  Level Estimated
Thu 06:12:00 PM 40.5387 -76.7567 19° North  Level Estimated
Thu 06:13:00 PM 40.6003 -76.7287 19° North  Level Estimated
Thu 06:14:00 PM 40.6620 -76.7007 19° North  Level Estimated
Thu 06:15:00 PM 40.7236 -76.6727 19° North  Level Estimated
Thu 06:16:00 PM 40.7852 -76.6446 19° North  Level Estimated
Thu 06:17:00 PM 40.8469 -76.6164 19° North  Level Estimated
Thu 06:18:00 PM 40.9085 -76.5882 19° North  Level Estimated
Thu 06:19:00 PM 40.9701 -76.5600 19° North  Level Estimated
Thu 06:20:00 PM 41.0317 -76.5316 19° North  Level Estimated
Thu 06:21:00 PM 41.0933 -76.5033 19° North  Level Estimated
Thu 06:22:00 PM 41.1548 -76.4749 19° North  Level Estimated
Thu 06:23:00 PM 41.2164 -76.4464 19° North  Level Estimated
Thu 06:24:00 PM 41.2780 -76.4179 19° North  Level Estimated
Thu 06:25:00 PM 41.3395 -76.3893 19° North  Level Estimated
Thu 06:26:00 PM 41.4011 -76.3606 19° North  Level Estimated
Thu 06:27:00 PM 41.4626 -76.3319 19° North  Level Estimated
Thu 06:28:00 PM 41.5242 -76.3032 19° North  Level Estimated
Thu 06:29:00 PM 41.5857 -76.2744 19° North  Level Estimated
Thu 06:30:00 PM 41.6472 -76.2456 19° North  Level Estimated
Thu 06:31:00 PM 41.7087 -76.2167 19° North  Level Estimated
Thu 06:32:00 PM 41.7702 -76.1877 19° North  Level Estimated
Thu 06:33:00 PM 41.8317 -76.1587 19° North  Level Estimated
Thu 06:34:00 PM 41.8932 -76.1296 19° North  Level Estimated
Thu 06:35:00 PM 41.9547 -76.1004 19° North  Level Estimated
Thu 06:36:00 PM 42.0162 -76.0713 19° North  Level Estimated
Thu 06:37:00 PM 42.0777 -76.0420 19° North  Level Estimated
Thu 06:38:00 PM 42.1391 -76.0127 19° North  Level Estimated
Thu 06:39:00 PM 42.2006 -75.9834 19° North  Level Estimated
Thu 06:40:00 PM 42.2084 -75.9796 20° North  Level Estimated
Thu 06:41:00 PM 42.2084 -75.9796 35° Northeast  Level Estimated
Thu 06:42:00 PM 42.2084 -75.9796 35° Northeast  Level Estimated
Thu 06:43:00 PM 42.2084 -75.9796 35° Northeast  Level Estimated
Thu 06:44:00 PM 42.2084 -75.9796 35° Northeast  Level Estimated
Thu 06:45:00 PM 42.2084 -75.9796 35° Northeast  Level Estimated
Thu 06:46:00 PM 42.2084 -75.9796 35° Northeast  Level Estimated
Thu 06:47:00 PM 42.2084 -75.9796 35° Northeast  Level Estimated
Thu 06:48:00 PM 42.2084 -75.9796 35° Northeast  Level Estimated
Thu 06:49:00 PM 42.2084 -75.9796 35° Northeast  Level Estimated
Thu 06:50:00 PM 42.2084 -75.9796 35° Northeast  Level Estimated
Thu 06:51:00 PM 42.2084 -75.9796 35° Northeast  Level Estimated
Thu 06:52:00 PM 42.2084 -75.9796 35° Northeast  Level Estimated
Thu 06:53:00 PM 42.2084 -75.9796 35° Northeast  Level Estimated
Thu 06:54:00 PM 42.2084 -75.9796 35° Northeast  Level Estimated
Thu 06:55:00 PM 42.2084 -75.9796 35° Northeast  Level Estimated

Login

Don't have an account? Register now (free) for customized features, flight alerts, and more!